sensor_id;sensor_type;location;lat;lon;timestamp;P1;durP1;ratioP1;P2;durP2;ratioP2
58222;SDS011;44020;50.890;15.796;2023-03-07T00:10:47;63.30;;;21.80;;
58222;SDS011;44020;50.890;15.796;2023-03-07T00:14:06;99.00;;;27.30;;
58222;SDS011;44020;50.890;15.796;2023-03-07T00:24:05;48.00;;;18.50;;
58222;SDS011;44020;50.890;15.796;2023-03-07T00:27:34;53.30;;;20.80;;
58222;SDS011;44020;50.890;15.796;2023-03-07T00:30:40;46.20;;;18.70;;
58222;SDS011;44020;50.890;15.796;2023-03-07T00:34:09;44.30;;;19.80;;
58222;SDS011;44020;50.890;15.796;2023-03-07T00:37:00;43.60;;;17.90;;
58222;SDS011;44020;50.890;15.796;2023-03-07T00:46:37;46.30;;;18.00;;
58222;SDS011;44020;50.890;15.796;2023-03-07T00:49:49;42.80;;;16.10;;
58222;SDS011;44020;50.890;15.796;2023-03-07T00:59:34;39.80;;;17.90;;
58222;SDS011;44020;50.890;15.796;2023-03-07T01:05:52;40.20;;;18.70;;
58222;SDS011;44020;50.890;15.796;2023-03-07T01:24:18;28.60;;;14.90;;
58222;SDS011;44020;50.890;15.796;2023-03-07T01:50:38;34.30;;;17.70;;
58222;SDS011;44020;50.890;15.796;2023-03-07T01:53:28;34.10;;;17.70;;
58222;SDS011;44020;50.890;15.796;2023-03-07T01:56:03;34.70;;;17.10;;
58222;SDS011;44020;50.890;15.796;2023-03-07T01:58:41;31.80;;;16.50;;
58222;SDS011;44020;50.890;15.796;2023-03-07T02:05:16;31.70;;;14.80;;
58222;SDS011;44020;50.890;15.796;2023-03-07T02:11:40;29.90;;;14.90;;
58222;SDS011;44020;50.890;15.796;2023-03-07T02:14:29;31.40;;;14.70;;
58222;SDS011;44020;50.890;15.796;2023-03-07T02:17:16;25.50;;;13.80;;
58222;SDS011;44020;50.890;15.796;2023-03-07T02:36:33;37.20;;;16.80;;
58222;SDS011;44020;50.890;15.796;2023-03-07T02:39:44;32.60;;;16.10;;
58222;SDS011;44020;50.890;15.796;2023-03-07T02:42:16;39.60;;;18.60;;
58222;SDS011;44020;50.890;15.796;2023-03-07T02:44:54;31.90;;;15.40;;
58222;SDS011;44020;50.890;15.796;2023-03-07T02:47:23;33.10;;;15.70;;
58222;SDS011;44020;50.890;15.796;2023-03-07T02:49:52;32.40;;;16.10;;
58222;SDS011;44020;50.890;15.796;2023-03-07T02:52:20;36.20;;;17.40;;
58222;SDS011;44020;50.890;15.796;2023-03-07T02:54:47;30.20;;;15.60;;
58222;SDS011;44020;50.890;15.796;2023-03-07T02:57:14;34.20;;;17.00;;
58222;SDS011;44020;50.890;15.796;2023-03-07T02:59:42;33.50;;;16.20;;
58222;SDS011;44020;50.890;15.796;2023-03-07T03:02:09;33.00;;;15.60;;
58222;SDS011;44020;50.890;15.796;2023-03-07T03:04:37;31.30;;;15.90;;
58222;SDS011;44020;50.890;15.796;2023-03-07T03:07:04;33.60;;;15.50;;
58222;SDS011;44020;50.890;15.796;2023-03-07T03:09:32;30.50;;;14.70;;
58222;SDS011;44020;50.890;15.796;2023-03-07T03:11:59;31.10;;;15.50;;
58222;SDS011;44020;50.890;15.796;2023-03-07T03:14:27;30.50;;;15.20;;
58222;SDS011;44020;50.890;15.796;2023-03-07T03:16:54;30.10;;;14.50;;
58222;SDS011;44020;50.890;15.796;2023-03-07T03:19:21;32.90;;;15.40;;
58222;SDS011;44020;50.890;15.796;2023-03-07T03:21:48;29.40;;;13.80;;
58222;SDS011;44020;50.890;15.796;2023-03-07T03:24:16;27.00;;;14.10;;
58222;SDS011;44020;50.890;15.796;2023-03-07T03:26:43;27.60;;;13.80;;
58222;SDS011;44020;50.890;15.796;2023-03-07T03:29:10;25.50;;;13.30;;
58222;SDS011;44020;50.890;15.796;2023-03-07T03:31:37;22.20;;;11.60;;
58222;SDS011;44020;50.890;15.796;2023-03-07T03:34:05;26.80;;;11.80;;
58222;SDS011;44020;50.890;15.796;2023-03-07T03:36:32;25.90;;;12.10;;
58222;SDS011;44020;50.890;15.796;2023-03-07T03:38:59;27.10;;;12.60;;
58222;SDS011;44020;50.890;15.796;2023-03-07T03:41:27;25.90;;;11.40;;
58222;SDS011;44020;50.890;15.796;2023-03-07T03:43:54;28.90;;;12.90;;
58222;SDS011;44020;50.890;15.796;2023-03-07T03:46:22;30.70;;;13.60;;
58222;SDS011;44020;50.890;15.796;2023-03-07T03:48:50;31.20;;;13.20;;
58222;SDS011;44020;50.890;15.796;2023-03-07T03:51:22;30.40;;;13.40;;
58222;SDS011;44020;50.890;15.796;2023-03-07T03:53:50;31.60;;;13.40;;
58222;SDS011;44020;50.890;15.796;2023-03-07T03:56:18;32.90;;;14.20;;
58222;SDS011;44020;50.890;15.796;2023-03-07T03:58:47;31.90;;;12.80;;
58222;SDS011;44020;50.890;15.796;2023-03-07T04:01:17;34.40;;;13.20;;
58222;SDS011;44020;50.890;15.796;2023-03-07T04:03:47;28.20;;;12.50;;
58222;SDS011;44020;50.890;15.796;2023-03-07T04:06:17;28.60;;;12.40;;
58222;SDS011;44020;50.890;15.796;2023-03-07T04:08:46;30.10;;;13.80;;
58222;SDS011;44020;50.890;15.796;2023-03-07T04:11:14;28.60;;;13.00;;
58222;SDS011;44020;50.890;15.796;2023-03-07T04:13:41;30.70;;;13.10;;
58222;SDS011;44020;50.890;15.796;2023-03-07T04:16:09;30.70;;;13.80;;
58222;SDS011;44020;50.890;15.796;2023-03-07T04:18:37;26.80;;;12.40;;
58222;SDS011;44020;50.890;15.796;2023-03-07T04:21:06;29.70;;;12.60;;
58222;SDS011;44020;50.890;15.796;2023-03-07T04:23:33;27.10;;;12.00;;
58222;SDS011;44020;50.890;15.796;2023-03-07T04:26:01;27.90;;;12.40;;
58222;SDS011;44020;50.890;15.796;2023-03-07T04:28:34;24.40;;;11.80;;
58222;SDS011;44020;50.890;15.796;2023-03-07T04:31:22;28.50;;;12.50;;
58222;SDS011;44020;50.890;15.796;2023-03-07T04:33:52;32.50;;;13.60;;
58222;SDS011;44020;50.890;15.796;2023-03-07T04:36:21;34.60;;;16.10;;
58222;SDS011;44020;50.890;15.796;2023-03-07T04:38:49;27.90;;;14.30;;
58222;SDS011;44020;50.890;15.796;2023-03-07T04:41:18;34.60;;;16.30;;
58222;SDS011;44020;50.890;15.796;2023-03-07T04:43:47;38.80;;;18.50;;
58222;SDS011;44020;50.890;15.796;2023-03-07T04:46:15;29.90;;;15.70;;
58222;SDS011;44020;50.890;15.796;2023-03-07T04:48:43;30.80;;;15.20;;
58222;SDS011;44020;50.890;15.796;2023-03-07T04:51:11;30.20;;;14.80;;
58222;SDS011;44020;50.890;15.796;2023-03-07T04:53:39;32.70;;;16.00;;
58222;SDS011;44020;50.890;15.796;2023-03-07T04:56:07;38.00;;;17.90;;
58222;SDS011;44020;50.890;15.796;2023-03-07T04:58:36;33.70;;;16.10;;
58222;SDS011;44020;50.890;15.796;2023-03-07T05:01:04;35.90;;;16.60;;
58222;SDS011;44020;50.890;15.796;2023-03-07T05:03:32;31.00;;;14.70;;
58222;SDS011;44020;50.890;15.796;2023-03-07T05:06:01;22.00;;;11.40;;
58222;SDS011;44020;50.890;15.796;2023-03-07T05:08:31;20.40;;;10.00;;
58222;SDS011;44020;50.890;15.796;2023-03-07T05:10:59;21.60;;;10.60;;
58222;SDS011;44020;50.890;15.796;2023-03-07T05:13:27;17.20;;;9.00;;
58222;SDS011;44020;50.890;15.796;2023-03-07T05:15:55;41.00;;;14.10;;
58222;SDS011;44020;50.890;15.796;2023-03-07T05:18:24;102.90;;;27.60;;
58222;SDS011;44020;50.890;15.796;2023-03-07T05:20:52;86.60;;;27.90;;
58222;SDS011;44020;50.890;15.796;2023-03-07T05:23:19;34.10;;;15.50;;
58222;SDS011;44020;50.890;15.796;2023-03-07T05:25:47;78.70;;;23.40;;
58222;SDS011;44020;50.890;15.796;2023-03-07T05:28:15;41.10;;;15.90;;
58222;SDS011;44020;50.890;15.796;2023-03-07T05:30:44;40.00;;;16.50;;
58222;SDS011;44020;50.890;15.796;2023-03-07T05:33:12;29.30;;;13.40;;
58222;SDS011;44020;50.890;15.796;2023-03-07T05:35:40;31.00;;;13.40;;
58222;SDS011;44020;50.890;15.796;2023-03-07T05:38:07;28.30;;;12.40;;
58222;SDS011;44020;50.890;15.796;2023-03-07T05:40:35;66.20;;;20.10;;
58222;SDS011;44020;50.890;15.796;2023-03-07T05:43:03;54.60;;;16.60;;
58222;SDS011;44020;50.890;15.796;2023-03-07T05:45:30;72.70;;;21.40;;
58222;SDS011;44020;50.890;15.796;2023-03-07T05:47:58;41.30;;;16.50;;
58222;SDS011;44020;50.890;15.796;2023-03-07T05:50:25;25.40;;;12.00;;
58222;SDS011;44020;50.890;15.796;2023-03-07T05:52:52;31.90;;;16.00;;
58222;SDS011;44020;50.890;15.796;2023-03-07T05:55:20;30.70;;;14.70;;
58222;SDS011;44020;50.890;15.796;2023-03-07T05:57:48;37.10;;;16.20;;
58222;SDS011;44020;50.890;15.796;2023-03-07T06:00:16;39.80;;;15.70;;
58222;SDS011;44020;50.890;15.796;2023-03-07T06:02:44;45.60;;;17.10;;
58222;SDS011;44020;50.890;15.796;2023-03-07T06:05:11;29.40;;;13.70;;
58222;SDS011;44020;50.890;15.796;2023-03-07T06:07:39;32.50;;;14.20;;
58222;SDS011;44020;50.890;15.796;2023-03-07T06:10:06;28.10;;;12.50;;
58222;SDS011;44020;50.890;15.796;2023-03-07T06:12:34;24.00;;;11.80;;
58222;SDS011;44020;50.890;15.796;2023-03-07T06:15:01;28.00;;;13.20;;
58222;SDS011;44020;50.890;15.796;2023-03-07T06:17:29;25.20;;;11.90;;
58222;SDS011;44020;50.890;15.796;2023-03-07T06:19:57;20.30;;;10.00;;
58222;SDS011;44020;50.890;15.796;2023-03-07T06:22:24;29.20;;;14.50;;
58222;SDS011;44020;50.890;15.796;2023-03-07T06:24:51;22.00;;;11.20;;
58222;SDS011;44020;50.890;15.796;2023-03-07T06:27:18;26.30;;;11.80;;
58222;SDS011;44020;50.890;15.796;2023-03-07T06:29:45;27.70;;;11.20;;
58222;SDS011;44020;50.890;15.796;2023-03-07T06:32:12;24.70;;;11.30;;
58222;SDS011;44020;50.890;15.796;2023-03-07T06:34:40;31.20;;;14.50;;
58222;SDS011;44020;50.890;15.796;2023-03-07T06:37:07;31.70;;;12.60;;
58222;SDS011;44020;50.890;15.796;2023-03-07T06:39:34;35.60;;;18.80;;
58222;SDS011;44020;50.890;15.796;2023-03-07T06:42:01;37.30;;;16.80;;
58222;SDS011;44020;50.890;15.796;2023-03-07T06:44:29;34.90;;;16.50;;
58222;SDS011;44020;50.890;15.796;2023-03-07T06:46:56;31.00;;;13.70;;
58222;SDS011;44020;50.890;15.796;2023-03-07T06:49:23;50.50;;;21.60;;
58222;SDS011;44020;50.890;15.796;2023-03-07T06:51:50;41.90;;;19.90;;
58222;SDS011;44020;50.890;15.796;2023-03-07T06:54:18;62.40;;;27.70;;
58222;SDS011;44020;50.890;15.796;2023-03-07T06:56:45;59.20;;;27.80;;
58222;SDS011;44020;50.890;15.796;2023-03-07T06:59:12;47.40;;;24.30;;
58222;SDS011;44020;50.890;15.796;2023-03-07T07:01:40;32.70;;;17.10;;
58222;SDS011;44020;50.890;15.796;2023-03-07T07:04:08;33.80;;;16.70;;
58222;SDS011;44020;50.890;15.796;2023-03-07T07:06:37;45.50;;;20.40;;
58222;SDS011;44020;50.890;15.796;2023-03-07T07:09:04;31.10;;;14.00;;
58222;SDS011;44020;50.890;15.796;2023-03-07T07:11:32;24.10;;;11.50;;
58222;SDS011;44020;50.890;15.796;2023-03-07T07:13:59;28.80;;;11.30;;
58222;SDS011;44020;50.890;15.796;2023-03-07T07:16:26;21.90;;;9.50;;
58222;SDS011;44020;50.890;15.796;2023-03-07T07:18:54;21.30;;;9.70;;
58222;SDS011;44020;50.890;15.796;2023-03-07T07:21:21;20.30;;;9.20;;
58222;SDS011;44020;50.890;15.796;2023-03-07T07:23:48;24.20;;;9.70;;
58222;SDS011;44020;50.890;15.796;2023-03-07T07:26:16;17.60;;;8.90;;
58222;SDS011;44020;50.890;15.796;2023-03-07T07:28:43;26.80;;;12.70;;
58222;SDS011;44020;50.890;15.796;2023-03-07T07:31:10;19.70;;;9.00;;
58222;SDS011;44020;50.890;15.796;2023-03-07T07:33:37;16.90;;;8.50;;
58222;SDS011;44020;50.890;15.796;2023-03-07T07:36:04;21.10;;;9.80;;
58222;SDS011;44020;50.890;15.796;2023-03-07T07:38:32;21.50;;;10.40;;
58222;SDS011;44020;50.890;15.796;2023-03-07T07:41:00;17.60;;;9.70;;
58222;SDS011;44020;50.890;15.796;2023-03-07T07:43:28;28.60;;;10.60;;
58222;SDS011;44020;50.890;15.796;2023-03-07T07:45:55;17.60;;;8.60;;
58222;SDS011;44020;50.890;15.796;2023-03-07T07:48:22;18.40;;;9.30;;
58222;SDS011;44020;50.890;15.796;2023-03-07T07:50:49;19.90;;;10.50;;
58222;SDS011;44020;50.890;15.796;2023-03-07T07:53:17;16.60;;;8.60;;
58222;SDS011;44020;50.890;15.796;2023-03-07T07:55:44;17.70;;;8.70;;
58222;SDS011;44020;50.890;15.796;2023-03-07T07:58:11;17.20;;;8.30;;
58222;SDS011;44020;50.890;15.796;2023-03-07T08:00:38;15.20;;;7.80;;
58222;SDS011;44020;50.890;15.796;2023-03-07T08:03:05;11.90;;;6.50;;
58222;SDS011;44020;50.890;15.796;2023-03-07T08:05:33;12.30;;;6.70;;
58222;SDS011;44020;50.890;15.796;2023-03-07T08:08:00;12.50;;;6.90;;
58222;SDS011;44020;50.890;15.796;2023-03-07T08:10:27;14.50;;;6.80;;
58222;SDS011;44020;50.890;15.796;2023-03-07T08:12:54;11.00;;;6.20;;
58222;SDS011;44020;50.890;15.796;2023-03-07T08:15:21;12.40;;;6.60;;
58222;SDS011;44020;50.890;15.796;2023-03-07T08:17:49;15.60;;;7.80;;
58222;SDS011;44020;50.890;15.796;2023-03-07T08:20:18;11.70;;;6.10;;
58222;SDS011;44020;50.890;15.796;2023-03-07T08:22:48;12.90;;;6.50;;
58222;SDS011;44020;50.890;15.796;2023-03-07T08:25:20;13.90;;;7.50;;
58222;SDS011;44020;50.890;15.796;2023-03-07T08:30:18;11.20;;;5.50;;
58222;SDS011;44020;50.890;15.796;2023-03-07T08:32:54;14.70;;;7.40;;
58222;SDS011;44020;50.890;15.796;2023-03-07T08:35:22;11.50;;;5.90;;
58222;SDS011;44020;50.890;15.796;2023-03-07T08:37:57;17.20;;;7.30;;
58222;SDS011;44020;50.890;15.796;2023-03-07T08:40:28;12.30;;;5.80;;
58222;SDS011;44020;50.890;15.796;2023-03-07T08:42:57;15.80;;;8.30;;
58222;SDS011;44020;50.890;15.796;2023-03-07T08:45:25;11.60;;;6.00;;
58222;SDS011;44020;50.890;15.796;2023-03-07T08:47:53;11.90;;;6.30;;
58222;SDS011;44020;50.890;15.796;2023-03-07T08:50:22;11.20;;;5.80;;
58222;SDS011;44020;50.890;15.796;2023-03-07T08:52:50;13.20;;;6.50;;
58222;SDS011;44020;50.890;15.796;2023-03-07T08:55:18;26.70;;;11.30;;
58222;SDS011;44020;50.890;15.796;2023-03-07T08:57:45;10.20;;;5.60;;
58222;SDS011;44020;50.890;15.796;2023-03-07T09:00:13;11.10;;;5.90;;
58222;SDS011;44020;50.890;15.796;2023-03-07T09:02:41;10.00;;;5.00;;
58222;SDS011;44020;50.890;15.796;2023-03-07T09:05:08;9.10;;;4.70;;
58222;SDS011;44020;50.890;15.796;2023-03-07T09:07:35;11.90;;;6.00;;
58222;SDS011;44020;50.890;15.796;2023-03-07T09:10:02;12.20;;;6.10;;
58222;SDS011;44020;50.890;15.796;2023-03-07T09:12:32;9.80;;;5.00;;
58222;SDS011;44020;50.890;15.796;2023-03-07T09:15:00;7.90;;;4.10;;
58222;SDS011;44020;50.890;15.796;2023-03-07T09:17:27;11.50;;;5.80;;
58222;SDS011;44020;50.890;15.796;2023-03-07T09:19:54;10.80;;;5.20;;
58222;SDS011;44020;50.890;15.796;2023-03-07T09:22:22;26.40;;;13.80;;
58222;SDS011;44020;50.890;15.796;2023-03-07T09:24:49;44.70;;;29.00;;
58222;SDS011;44020;50.890;15.796;2023-03-07T09:27:16;13.30;;;8.10;;
58222;SDS011;44020;50.890;15.796;2023-03-07T09:29:43;8.50;;;5.20;;
58222;SDS011;44020;50.890;15.796;2023-03-07T09:32:10;21.20;;;14.30;;
58222;SDS011;44020;50.890;15.796;2023-03-07T09:34:38;9.00;;;5.50;;
58222;SDS011;44020;50.890;15.796;2023-03-07T09:37:05;7.70;;;4.30;;
58222;SDS011;44020;50.890;15.796;2023-03-07T09:39:32;8.60;;;3.90;;
58222;SDS011;44020;50.890;15.796;2023-03-07T09:42:08;14.50;;;8.60;;
58222;SDS011;44020;50.890;15.796;2023-03-07T09:50:13;7.50;;;3.70;;
58222;SDS011;44020;50.890;15.796;2023-03-07T09:52:48;11.90;;;8.20;;
58222;SDS011;44020;50.890;15.796;2023-03-07T09:55:22;4.90;;;3.20;;
58222;SDS011;44020;50.890;15.796;2023-03-07T09:57:52;7.80;;;4.00;;
58222;SDS011;44020;50.890;15.796;2023-03-07T10:00:38;5.40;;;3.10;;
58222;SDS011;44020;50.890;15.796;2023-03-07T10:03:12;5.80;;;3.00;;
58222;SDS011;44020;50.890;15.796;2023-03-07T10:05:43;5.60;;;3.20;;
58222;SDS011;44020;50.890;15.796;2023-03-07T10:08:19;5.60;;;3.10;;
58222;SDS011;44020;50.890;15.796;2023-03-07T10:13:56;4.10;;;2.90;;
58222;SDS011;44020;50.890;15.796;2023-03-07T10:25:22;5.60;;;3.50;;
58222;SDS011;44020;50.890;15.796;2023-03-07T10:27:51;7.30;;;3.30;;
58222;SDS011;44020;50.890;15.796;2023-03-07T10:30:28;6.10;;;2.80;;
58222;SDS011;44020;50.890;15.796;2023-03-07T10:32:58;8.20;;;3.50;;
58222;SDS011;44020;50.890;15.796;2023-03-07T10:41:23;4.80;;;2.70;;
58222;SDS011;44020;50.890;15.796;2023-03-07T10:43:50;5.10;;;2.40;;
58222;SDS011;44020;50.890;15.796;2023-03-07T10:46:21;4.40;;;2.20;;
58222;SDS011;44020;50.890;15.796;2023-03-07T10:54:20;6.50;;;2.80;;
58222;SDS011;44020;50.890;15.796;2023-03-07T10:59:40;4.70;;;2.70;;
58222;SDS011;44020;50.890;15.796;2023-03-07T11:02:34;5.20;;;2.30;;
58222;SDS011;44020;50.890;15.796;2023-03-07T11:07:57;4.00;;;2.10;;
58222;SDS011;44020;50.890;15.796;2023-03-07T11:10:34;4.30;;;2.40;;
58222;SDS011;44020;50.890;15.796;2023-03-07T11:15:42;3.50;;;2.10;;
58222;SDS011;44020;50.890;15.796;2023-03-07T11:20:57;8.00;;;4.40;;
58222;SDS011;44020;50.890;15.796;2023-03-07T11:23:26;11.70;;;5.60;;
58222;SDS011;44020;50.890;15.796;2023-03-07T11:26:14;12.70;;;6.20;;
58222;SDS011;44020;50.890;15.796;2023-03-07T11:28:47;6.60;;;3.90;;
58222;SDS011;44020;50.890;15.796;2023-03-07T11:31:40;14.40;;;6.10;;
58222;SDS011;44020;50.890;15.796;2023-03-07T11:37:28;6.50;;;3.30;;
58222;SDS011;44020;50.890;15.796;2023-03-07T11:43:45;4.30;;;2.10;;
58222;SDS011;44020;50.890;15.796;2023-03-07T11:46:10;3.00;;;1.90;;
58222;SDS011;44020;50.890;15.796;2023-03-07T11:57:49;2.60;;;1.80;;
58222;SDS011;44020;50.890;15.796;2023-03-07T12:06:14;3.60;;;2.00;;
58222;SDS011;44020;50.890;15.796;2023-03-07T12:16:39;5.80;;;3.10;;
58222;SDS011;44020;50.890;15.796;2023-03-07T12:19:16;4.50;;;2.30;;
58222;SDS011;44020;50.890;15.796;2023-03-07T12:26:57;5.90;;;3.00;;
58222;SDS011;44020;50.890;15.796;2023-03-07T12:32:14;5.50;;;2.90;;
58222;SDS011;44020;50.890;15.796;2023-03-07T12:34:50;3.90;;;2.40;;
58222;SDS011;44020;50.890;15.796;2023-03-07T12:37:24;3.60;;;2.40;;
58222;SDS011;44020;50.890;15.796;2023-03-07T12:40:16;4.90;;;2.80;;
58222;SDS011;44020;50.890;15.796;2023-03-07T12:42:56;3.30;;;2.00;;
58222;SDS011;44020;50.890;15.796;2023-03-07T12:45:37;5.90;;;3.30;;
58222;SDS011;44020;50.890;15.796;2023-03-07T12:48:37;4.50;;;3.30;;
58222;SDS011;44020;50.890;15.796;2023-03-07T12:51:26;3.70;;;2.10;;
58222;SDS011;44020;50.890;15.796;2023-03-07T12:54:04;7.50;;;4.40;;
58222;SDS011;44020;50.890;15.796;2023-03-07T12:56:55;8.10;;;4.40;;
58222;SDS011;44020;50.890;15.796;2023-03-07T12:59:35;2.90;;;2.00;;
58222;SDS011;44020;50.890;15.796;2023-03-07T13:02:12;5.50;;;3.10;;
58222;SDS011;44020;50.890;15.796;2023-03-07T13:04:46;6.50;;;3.90;;
58222;SDS011;44020;50.890;15.796;2023-03-07T13:09:43;4.90;;;3.10;;
58222;SDS011;44020;50.890;15.796;2023-03-07T13:14:55;8.90;;;4.90;;
58222;SDS011;44020;50.890;15.796;2023-03-07T13:19:57;6.80;;;4.20;;
58222;SDS011;44020;50.890;15.796;2023-03-07T13:28:02;11.60;;;6.80;;
58222;SDS011;44020;50.890;15.796;2023-03-07T13:30:32;8.00;;;4.60;;
58222;SDS011;44020;50.890;15.796;2023-03-07T13:33:00;7.60;;;4.20;;
58222;SDS011;44020;50.890;15.796;2023-03-07T13:37:57;10.10;;;5.60;;
58222;SDS011;44020;50.890;15.796;2023-03-07T13:45:59;8.10;;;4.90;;
58222;SDS011;44020;50.890;15.796;2023-03-07T14:06:49;8.90;;;6.00;;
58222;SDS011;44020;50.890;15.796;2023-03-07T14:09:18;9.10;;;5.40;;
58222;SDS011;44020;50.890;15.796;2023-03-07T14:12:03;9.10;;;6.00;;
58222;SDS011;44020;50.890;15.796;2023-03-07T14:20:51;13.60;;;9.70;;
58222;SDS011;44020;50.890;15.796;2023-03-07T14:26:42;11.10;;;7.20;;
58222;SDS011;44020;50.890;15.796;2023-03-07T14:31:49;9.60;;;5.90;;
58222;SDS011;44020;50.890;15.796;2023-03-07T14:36:58;12.30;;;7.70;;
58222;SDS011;44020;50.890;15.796;2023-03-07T14:39:44;17.80;;;8.90;;
58222;SDS011;44020;50.890;15.796;2023-03-07T14:48:21;17.10;;;10.40;;
58222;SDS011;44020;50.890;15.796;2023-03-07T14:50:40;20.60;;;10.00;;
58222;SDS011;44020;50.890;15.796;2023-03-07T14:53:14;13.80;;;7.50;;
58222;SDS011;44020;50.890;15.796;2023-03-07T14:55:51;17.40;;;8.90;;
58222;SDS011;44020;50.890;15.796;2023-03-07T14:58:24;12.50;;;8.00;;
58222;SDS011;44020;50.890;15.796;2023-03-07T15:00:59;18.30;;;11.00;;
58222;SDS011;44020;50.890;15.796;2023-03-07T15:03:28;11.50;;;6.90;;
58222;SDS011;44020;50.890;15.796;2023-03-07T15:05:57;20.90;;;10.10;;
58222;SDS011;44020;50.890;15.796;2023-03-07T15:08:26;23.40;;;12.30;;
58222;SDS011;44020;50.890;15.796;2023-03-07T15:13:46;18.50;;;10.40;;
58222;SDS011;44020;50.890;15.796;2023-03-07T15:16:21;15.00;;;8.60;;
58222;SDS011;44020;50.890;15.796;2023-03-07T15:18:50;17.40;;;9.10;;
58222;SDS011;44020;50.890;15.796;2023-03-07T15:21:21;20.00;;;10.00;;
58222;SDS011;44020;50.890;15.796;2023-03-07T15:23:52;7.30;;;3.90;;
58222;SDS011;44020;50.890;15.796;2023-03-07T15:26:23;9.30;;;4.40;;
58222;SDS011;44020;50.890;15.796;2023-03-07T15:29:04;9.50;;;5.20;;
58222;SDS011;44020;50.890;15.796;2023-03-07T15:31:51;8.70;;;4.70;;
58222;SDS011;44020;50.890;15.796;2023-03-07T15:34:22;9.30;;;5.00;;
58222;SDS011;44020;50.890;15.796;2023-03-07T15:36:54;7.80;;;4.40;;
58222;SDS011;44020;50.890;15.796;2023-03-07T15:39:29;5.30;;;3.30;;
58222;SDS011;44020;50.890;15.796;2023-03-07T15:42:04;7.20;;;4.60;;
58222;SDS011;44020;50.890;15.796;2023-03-07T15:44:33;4.20;;;2.80;;
58222;SDS011;44020;50.890;15.796;2023-03-07T15:47:03;6.50;;;2.90;;
58222;SDS011;44020;50.890;15.796;2023-03-07T15:49:43;7.30;;;4.20;;
58222;SDS011;44020;50.890;15.796;2023-03-07T15:52:37;5.60;;;3.30;;
58222;SDS011;44020;50.890;15.796;2023-03-07T15:55:23;6.40;;;3.40;;
58222;SDS011;44020;50.890;15.796;2023-03-07T15:57:54;8.60;;;4.40;;
58222;SDS011;44020;50.890;15.796;2023-03-07T16:05:48;7.70;;;4.20;;
58222;SDS011;44020;50.890;15.796;2023-03-07T16:08:16;4.60;;;2.80;;
58222;SDS011;44020;50.890;15.796;2023-03-07T16:10:49;4.10;;;2.40;;
58222;SDS011;44020;50.890;15.796;2023-03-07T16:13:23;4.00;;;2.40;;
58222;SDS011;44020;50.890;15.796;2023-03-07T16:18:45;5.60;;;3.20;;
58222;SDS011;44020;50.890;15.796;2023-03-07T16:21:14;8.10;;;4.40;;
58222;SDS011;44020;50.890;15.796;2023-03-07T16:23:42;7.10;;;3.10;;
58222;SDS011;44020;50.890;15.796;2023-03-07T16:26:11;5.10;;;2.70;;
58222;SDS011;44020;50.890;15.796;2023-03-07T16:28:41;4.70;;;2.20;;
58222;SDS011;44020;50.890;15.796;2023-03-07T16:31:12;6.40;;;3.10;;
58222;SDS011;44020;50.890;15.796;2023-03-07T16:33:42;5.70;;;3.00;;
58222;SDS011;44020;50.890;15.796;2023-03-07T16:36:10;8.20;;;4.70;;
58222;SDS011;44020;50.890;15.796;2023-03-07T16:38:38;7.30;;;4.30;;
58222;SDS011;44020;50.890;15.796;2023-03-07T16:41:15;6.20;;;3.30;;
58222;SDS011;44020;50.890;15.796;2023-03-07T16:43:45;6.20;;;3.40;;
58222;SDS011;44020;50.890;15.796;2023-03-07T16:46:18;8.20;;;3.90;;
58222;SDS011;44020;50.890;15.796;2023-03-07T16:48:46;9.70;;;4.10;;
58222;SDS011;44020;50.890;15.796;2023-03-07T16:51:18;6.60;;;3.40;;
58222;SDS011;44020;50.890;15.796;2023-03-07T16:53:48;10.80;;;4.80;;
58222;SDS011;44020;50.890;15.796;2023-03-07T16:56:27;8.50;;;5.10;;
58222;SDS011;44020;50.890;15.796;2023-03-07T16:58:58;6.90;;;3.40;;
58222;SDS011;44020;50.890;15.796;2023-03-07T17:01:26;6.70;;;3.30;;
58222;SDS011;44020;50.890;15.796;2023-03-07T17:03:54;5.90;;;3.80;;
58222;SDS011;44020;50.890;15.796;2023-03-07T17:06:24;6.80;;;3.80;;
58222;SDS011;44020;50.890;15.796;2023-03-07T17:08:52;7.30;;;4.60;;
58222;SDS011;44020;50.890;15.796;2023-03-07T17:11:23;7.40;;;4.60;;
58222;SDS011;44020;50.890;15.796;2023-03-07T17:13:53;8.60;;;5.20;;
58222;SDS011;44020;50.890;15.796;2023-03-07T17:16:23;9.00;;;5.80;;
58222;SDS011;44020;50.890;15.796;2023-03-07T17:18:52;8.80;;;5.60;;
58222;SDS011;44020;50.890;15.796;2023-03-07T17:21:20;7.40;;;4.40;;
58222;SDS011;44020;50.890;15.796;2023-03-07T17:23:48;13.50;;;8.00;;
58222;SDS011;44020;50.890;15.796;2023-03-07T17:26:32;16.90;;;8.20;;
58222;SDS011;44020;50.890;15.796;2023-03-07T17:29:05;22.90;;;10.90;;
58222;SDS011;44020;50.890;15.796;2023-03-07T17:31:37;76.30;;;34.30;;
58222;SDS011;44020;50.890;15.796;2023-03-07T17:34:05;58.10;;;30.10;;
58222;SDS011;44020;50.890;15.796;2023-03-07T17:36:32;46.40;;;27.20;;
58222;SDS011;44020;50.890;15.796;2023-03-07T17:38:59;31.70;;;17.80;;
58222;SDS011;44020;50.890;15.796;2023-03-07T17:41:26;45.10;;;27.90;;
58222;SDS011;44020;50.890;15.796;2023-03-07T17:43:54;27.70;;;17.20;;
58222;SDS011;44020;50.890;15.796;2023-03-07T17:46:21;13.10;;;8.40;;
58222;SDS011;44020;50.890;15.796;2023-03-07T17:48:51;11.80;;;8.20;;
58222;SDS011;44020;50.890;15.796;2023-03-07T17:51:19;16.00;;;10.60;;
58222;SDS011;44020;50.890;15.796;2023-03-07T17:53:46;14.70;;;10.70;;
58222;SDS011;44020;50.890;15.796;2023-03-07T17:56:13;165.20;;;123.50;;
58222;SDS011;44020;50.890;15.796;2023-03-07T17:58:41;43.80;;;36.00;;
58222;SDS011;44020;50.890;15.796;2023-03-07T18:01:08;26.30;;;21.70;;
58222;SDS011;44020;50.890;15.796;2023-03-07T18:03:37;16.80;;;11.70;;
58222;SDS011;44020;50.890;15.796;2023-03-07T18:06:04;17.60;;;13.40;;
58222;SDS011;44020;50.890;15.796;2023-03-07T18:08:32;23.30;;;19.00;;
58222;SDS011;44020;50.890;15.796;2023-03-07T18:11:05;13.20;;;8.70;;
58222;SDS011;44020;50.890;15.796;2023-03-07T18:13:34;15.10;;;8.70;;
58222;SDS011;44020;50.890;15.796;2023-03-07T18:16:03;17.30;;;12.10;;
58222;SDS011;44020;50.890;15.796;2023-03-07T18:18:35;12.60;;;8.80;;
58222;SDS011;44020;50.890;15.796;2023-03-07T18:23:33;16.30;;;9.50;;
58222;SDS011;44020;50.890;15.796;2023-03-07T18:26:06;12.60;;;8.20;;
58222;SDS011;44020;50.890;15.796;2023-03-07T18:28:40;14.80;;;8.90;;
58222;SDS011;44020;50.890;15.796;2023-03-07T18:31:10;16.30;;;10.80;;
58222;SDS011;44020;50.890;15.796;2023-03-07T18:33:39;11.50;;;7.90;;
58222;SDS011;44020;50.890;15.796;2023-03-07T18:36:08;15.90;;;11.00;;
58222;SDS011;44020;50.890;15.796;2023-03-07T18:38:40;12.40;;;8.20;;
58222;SDS011;44020;50.890;15.796;2023-03-07T18:41:09;16.70;;;10.10;;
58222;SDS011;44020;50.890;15.796;2023-03-07T18:43:38;11.90;;;7.40;;
58222;SDS011;44020;50.890;15.796;2023-03-07T18:46:07;20.10;;;13.60;;
58222;SDS011;44020;50.890;15.796;2023-03-07T18:48:37;12.40;;;8.10;;
58222;SDS011;44020;50.890;15.796;2023-03-07T18:51:05;12.40;;;7.10;;
58222;SDS011;44020;50.890;15.796;2023-03-07T18:53:35;31.60;;;20.10;;
58222;SDS011;44020;50.890;15.796;2023-03-07T18:56:08;16.00;;;10.10;;